Bath, Michigan
Current Conditions -  °F | °C
As of 6:53 AM on Monday 22 Dec 2014 (Local Time) from KLAN Reporting Station
Haze Haze  
Wind Chill: 19°   Ceiling: Unl
Heat Index: 27°   Visibility: 4mi
Dew Point: 24°   Wind: 8mph
Humidity: 89%   Direction: 140°SE
Pressure: 30.07"   Gusts: NA
Location:  42.82°N, 84.45°W
Report Text: KLAN 221153Z 14007KT 4SM BR CLR M03/M04 A3007 RMK AO2 SLP194 T10281044 11022 21028 56008
Loading
Personal Weather Stations






























Interactive Weather Map New forecast layout! Learn more

10-Day Weather Forecast

Advertisements
Track Severe Weather on mobile